sensor_id;sensor_type;location;lat;lon;timestamp;temperature;humidity
5023;DHT22;2530;47.990;7.866;2022-09-09T00:00:17;15.70;99.90
5023;DHT22;2530;47.990;7.866;2022-09-09T00:02:58;15.80;99.90
5023;DHT22;2530;47.990;7.866;2022-09-09T00:05:44;15.80;99.90
5023;DHT22;2530;47.990;7.866;2022-09-09T00:08:19;15.90;99.90
5023;DHT22;2530;47.990;7.866;2022-09-09T00:10:51;15.90;99.90
5023;DHT22;2530;47.990;7.866;2022-09-09T00:13:28;15.90;99.90
5023;DHT22;2530;47.990;7.866;2022-09-09T00:16:27;16.00;99.90
5023;DHT22;2530;47.990;7.866;2022-09-09T00:19:06;15.90;99.90
5023;DHT22;2530;47.990;7.866;2022-09-09T00:21:35;15.90;99.90
5023;DHT22;2530;47.990;7.866;2022-09-09T00:24:08;15.90;99.90
5023;DHT22;2530;47.990;7.866;2022-09-09T00:26:40;15.90;99.90
5023;DHT22;2530;47.990;7.866;2022-09-09T00:31:34;15.90;99.90
5023;DHT22;2530;47.990;7.866;2022-09-09T00:34:20;15.90;99.90
5023;DHT22;2530;47.990;7.866;2022-09-09T00:36:48;15.90;99.90
5023;DHT22;2530;47.990;7.866;2022-09-09T00:39:34;16.10;99.90
5023;DHT22;2530;47.990;7.866;2022-09-09T00:42:18;16.20;99.90
5023;DHT22;2530;47.990;7.866;2022-09-09T00:47:53;16.20;99.90
5023;DHT22;2530;47.990;7.866;2022-09-09T00:56:20;16.10;99.90
5023;DHT22;2530;47.990;7.866;2022-09-09T00:59:04;16.10;99.90
5023;DHT22;2530;47.990;7.866;2022-09-09T01:01:32;16.00;99.90
5023;DHT22;2530;47.990;7.866;2022-09-09T01:03:57;15.90;99.90
5023;DHT22;2530;47.990;7.866;2022-09-09T01:06:32;16.10;99.90
5023;DHT22;2530;47.990;7.866;2022-09-09T01:15:24;16.10;99.90
5023;DHT22;2530;47.990;7.866;2022-09-09T01:18:07;16.00;99.90
5023;DHT22;2530;47.990;7.866;2022-09-09T01:23:47;16.10;99.90
5023;DHT22;2530;47.990;7.866;2022-09-09T01:26:21;16.10;99.90
5023;DHT22;2530;47.990;7.866;2022-09-09T01:28:50;16.20;99.90
5023;DHT22;2530;47.990;7.866;2022-09-09T01:31:38;16.20;99.90
5023;DHT22;2530;47.990;7.866;2022-09-09T01:34:12;16.20;99.90
5023;DHT22;2530;47.990;7.866;2022-09-09T01:36:59;16.10;99.90
5023;DHT22;2530;47.990;7.866;2022-09-09T01:39:26;16.00;99.90
5023;DHT22;2530;47.990;7.866;2022-09-09T01:41:53;16.10;99.90
5023;DHT22;2530;47.990;7.866;2022-09-09T01:44:20;16.20;99.90
5023;DHT22;2530;47.990;7.866;2022-09-09T01:46:46;16.30;99.90
5023;DHT22;2530;47.990;7.866;2022-09-09T01:49:12;16.60;99.90
5023;DHT22;2530;47.990;7.866;2022-09-09T01:51:39;16.70;99.90
5023;DHT22;2530;47.990;7.866;2022-09-09T01:54:06;16.80;99.90
5023;DHT22;2530;47.990;7.866;2022-09-09T01:57:01;16.80;99.90
5023;DHT22;2530;47.990;7.866;2022-09-09T02:02:32;16.30;99.90
5023;DHT22;2530;47.990;7.866;2022-09-09T02:07:48;16.40;99.90
5023;DHT22;2530;47.990;7.866;2022-09-09T02:10:31;16.20;99.90
5023;DHT22;2530;47.990;7.866;2022-09-09T02:13:07;16.20;99.90
5023;DHT22;2530;47.990;7.866;2022-09-09T02:15:55;16.00;99.90
5023;DHT22;2530;47.990;7.866;2022-09-09T02:18:42;16.00;99.90
5023;DHT22;2530;47.990;7.866;2022-09-09T02:21:11;16.00;99.90
5023;DHT22;2530;47.990;7.866;2022-09-09T02:23:38;16.00;99.90
5023;DHT22;2530;47.990;7.866;2022-09-09T02:26:05;16.00;99.90
5023;DHT22;2530;47.990;7.866;2022-09-09T02:28:34;16.00;99.90
5023;DHT22;2530;47.990;7.866;2022-09-09T02:31:01;15.90;99.90
5023;DHT22;2530;47.990;7.866;2022-09-09T02:33:31;15.90;99.90
5023;DHT22;2530;47.990;7.866;2022-09-09T02:36:00;15.90;99.90
5023;DHT22;2530;47.990;7.866;2022-09-09T02:38:30;15.90;99.90
5023;DHT22;2530;47.990;7.866;2022-09-09T02:40:57;15.80;99.90
5023;DHT22;2530;47.990;7.866;2022-09-09T02:43:24;15.80;99.90
5023;DHT22;2530;47.990;7.866;2022-09-09T02:46:03;15.80;99.90
5023;DHT22;2530;47.990;7.866;2022-09-09T02:48:47;15.90;99.90
5023;DHT22;2530;47.990;7.866;2022-09-09T02:56:53;15.80;99.90
5023;DHT22;2530;47.990;7.866;2022-09-09T02:59:22;15.90;99.90
5023;DHT22;2530;47.990;7.866;2022-09-09T03:01:49;15.90;99.90
5023;DHT22;2530;47.990;7.866;2022-09-09T03:04:15;15.70;99.90
5023;DHT22;2530;47.990;7.866;2022-09-09T03:06:40;15.80;99.90
5023;DHT22;2530;47.990;7.866;2022-09-09T03:09:06;15.80;99.90
5023;DHT22;2530;47.990;7.866;2022-09-09T03:11:33;15.80;99.90
5023;DHT22;2530;47.990;7.866;2022-09-09T03:13:58;15.80;99.90
5023;DHT22;2530;47.990;7.866;2022-09-09T03:16:24;15.90;99.90
5023;DHT22;2530;47.990;7.866;2022-09-09T03:18:50;15.90;99.90
5023;DHT22;2530;47.990;7.866;2022-09-09T03:21:16;15.80;99.90
5023;DHT22;2530;47.990;7.866;2022-09-09T03:23:41;15.80;99.90
5023;DHT22;2530;47.990;7.866;2022-09-09T03:26:07;15.80;99.90
5023;DHT22;2530;47.990;7.866;2022-09-09T03:28:33;15.80;99.90
5023;DHT22;2530;47.990;7.866;2022-09-09T03:31:00;15.80;99.90
5023;DHT22;2530;47.990;7.866;2022-09-09T03:33:26;15.90;99.90
5023;DHT22;2530;47.990;7.866;2022-09-09T03:35:51;15.90;99.90
5023;DHT22;2530;47.990;7.866;2022-09-09T03:38:17;15.90;99.90
5023;DHT22;2530;47.990;7.866;2022-09-09T03:40:52;15.90;99.90
5023;DHT22;2530;47.990;7.866;2022-09-09T03:43:23;15.90;99.90
5023;DHT22;2530;47.990;7.866;2022-09-09T03:45:49;15.90;99.90
5023;DHT22;2530;47.990;7.866;2022-09-09T03:48:16;15.90;99.90
5023;DHT22;2530;47.990;7.866;2022-09-09T03:50:49;16.00;99.90
5023;DHT22;2530;47.990;7.866;2022-09-09T03:53:16;16.10;99.90
5023;DHT22;2530;47.990;7.866;2022-09-09T03:55:45;16.00;99.90
5023;DHT22;2530;47.990;7.866;2022-09-09T03:58:13;16.50;99.90
5023;DHT22;2530;47.990;7.866;2022-09-09T04:00:39;16.40;99.90
5023;DHT22;2530;47.990;7.866;2022-09-09T04:03:11;16.30;99.90
5023;DHT22;2530;47.990;7.866;2022-09-09T04:05:38;16.40;99.90
5023;DHT22;2530;47.990;7.866;2022-09-09T04:08:06;16.50;99.90
5023;DHT22;2530;47.990;7.866;2022-09-09T04:10:32;16.90;99.90
5023;DHT22;2530;47.990;7.866;2022-09-09T04:12:58;17.10;99.90
5023;DHT22;2530;47.990;7.866;2022-09-09T04:15:25;17.00;99.90
5023;DHT22;2530;47.990;7.866;2022-09-09T04:17:50;17.10;99.90
5023;DHT22;2530;47.990;7.866;2022-09-09T04:20:16;17.30;99.90
5023;DHT22;2530;47.990;7.866;2022-09-09T04:22:42;17.40;99.90
5023;DHT22;2530;47.990;7.866;2022-09-09T04:25:07;17.40;99.90
5023;DHT22;2530;47.990;7.866;2022-09-09T04:27:33;17.50;99.90
5023;DHT22;2530;47.990;7.866;2022-09-09T04:29:59;17.50;99.90
5023;DHT22;2530;47.990;7.866;2022-09-09T04:32:24;17.50;99.90
5023;DHT22;2530;47.990;7.866;2022-09-09T04:34:52;17.50;99.90
5023;DHT22;2530;47.990;7.866;2022-09-09T04:37:18;17.50;99.90
5023;DHT22;2530;47.990;7.866;2022-09-09T04:39:44;17.40;99.90
5023;DHT22;2530;47.990;7.866;2022-09-09T04:42:10;17.60;99.90
5023;DHT22;2530;47.990;7.866;2022-09-09T04:44:37;17.60;99.90
5023;DHT22;2530;47.990;7.866;2022-09-09T04:47:03;17.70;99.90
5023;DHT22;2530;47.990;7.866;2022-09-09T04:49:28;17.70;99.90
5023;DHT22;2530;47.990;7.866;2022-09-09T04:51:56;17.70;99.90
5023;DHT22;2530;47.990;7.866;2022-09-09T04:54:21;17.70;99.90
5023;DHT22;2530;47.990;7.866;2022-09-09T04:56:47;17.80;99.90
5023;DHT22;2530;47.990;7.866;2022-09-09T04:59:12;17.80;99.90
5023;DHT22;2530;47.990;7.866;2022-09-09T05:01:38;17.80;99.90
5023;DHT22;2530;47.990;7.866;2022-09-09T05:04:03;17.80;99.90
5023;DHT22;2530;47.990;7.866;2022-09-09T05:06:29;17.80;99.90
5023;DHT22;2530;47.990;7.866;2022-09-09T05:08:56;18.00;99.90
5023;DHT22;2530;47.990;7.866;2022-09-09T05:13:50;17.80;99.90
5023;DHT22;2530;47.990;7.866;2022-09-09T05:16:16;17.80;99.90
5023;DHT22;2530;47.990;7.866;2022-09-09T05:18:43;17.80;99.90
5023;DHT22;2530;47.990;7.866;2022-09-09T05:21:10;17.70;99.90
5023;DHT22;2530;47.990;7.866;2022-09-09T05:23:36;17.60;99.90
5023;DHT22;2530;47.990;7.866;2022-09-09T05:26:02;17.60;99.90
5023;DHT22;2530;47.990;7.866;2022-09-09T05:28:28;17.60;99.90
5023;DHT22;2530;47.990;7.866;2022-09-09T05:31:00;17.50;99.90
5023;DHT22;2530;47.990;7.866;2022-09-09T05:33:26;17.70;99.90
5023;DHT22;2530;47.990;7.866;2022-09-09T05:35:57;17.80;99.90
5023;DHT22;2530;47.990;7.866;2022-09-09T05:38:23;17.80;99.90
5023;DHT22;2530;47.990;7.866;2022-09-09T05:40:51;17.90;99.90
5023;DHT22;2530;47.990;7.866;2022-09-09T05:43:18;17.90;99.90
5023;DHT22;2530;47.990;7.866;2022-09-09T05:45:48;17.90;99.90
5023;DHT22;2530;47.990;7.866;2022-09-09T05:48:16;17.90;99.90
5023;DHT22;2530;47.990;7.866;2022-09-09T05:50:43;17.90;99.90
5023;DHT22;2530;47.990;7.866;2022-09-09T05:53:09;17.90;99.90
5023;DHT22;2530;47.990;7.866;2022-09-09T05:55:35;17.90;99.90
5023;DHT22;2530;47.990;7.866;2022-09-09T05:58:01;18.00;99.90
5023;DHT22;2530;47.990;7.866;2022-09-09T06:00:27;18.00;99.90
5023;DHT22;2530;47.990;7.866;2022-09-09T06:02:52;17.90;99.90
5023;DHT22;2530;47.990;7.866;2022-09-09T06:05:19;18.00;99.90
5023;DHT22;2530;47.990;7.866;2022-09-09T06:07:44;18.00;99.90
5023;DHT22;2530;47.990;7.866;2022-09-09T06:10:11;18.00;99.90
5023;DHT22;2530;47.990;7.866;2022-09-09T06:12:39;18.00;99.90
5023;DHT22;2530;47.990;7.866;2022-09-09T06:15:04;18.00;99.90
5023;DHT22;2530;47.990;7.866;2022-09-09T06:17:30;18.00;99.90
5023;DHT22;2530;47.990;7.866;2022-09-09T06:19:56;18.10;99.90
5023;DHT22;2530;47.990;7.866;2022-09-09T06:22:22;18.10;99.90
5023;DHT22;2530;47.990;7.866;2022-09-09T06:24:47;18.00;99.90
5023;DHT22;2530;47.990;7.866;2022-09-09T06:27:13;18.00;99.90
5023;DHT22;2530;47.990;7.866;2022-09-09T06:29:39;18.10;99.90
5023;DHT22;2530;47.990;7.866;2022-09-09T06:32:05;18.20;99.90
5023;DHT22;2530;47.990;7.866;2022-09-09T06:34:30;18.20;99.90
5023;DHT22;2530;47.990;7.866;2022-09-09T06:36:56;18.20;99.90
5023;DHT22;2530;47.990;7.866;2022-09-09T06:39:25;18.20;99.90
5023;DHT22;2530;47.990;7.866;2022-09-09T06:41:51;18.20;99.90
5023;DHT22;2530;47.990;7.866;2022-09-09T06:44:18;18.20;99.90
5023;DHT22;2530;47.990;7.866;2022-09-09T06:46:44;18.30;99.90
5023;DHT22;2530;47.990;7.866;2022-09-09T06:49:13;18.20;99.90
5023;DHT22;2530;47.990;7.866;2022-09-09T06:51:39;18.30;99.90
5023;DHT22;2530;47.990;7.866;2022-09-09T06:54:14;18.20;99.90
5023;DHT22;2530;47.990;7.866;2022-09-09T06:56:41;18.10;99.90
5023;DHT22;2530;47.990;7.866;2022-09-09T06:59:08;18.10;99.90
5023;DHT22;2530;47.990;7.866;2022-09-09T07:01:42;18.00;99.90
5023;DHT22;2530;47.990;7.866;2022-09-09T07:04:12;18.10;99.90
5023;DHT22;2530;47.990;7.866;2022-09-09T07:06:42;18.20;99.90
5023;DHT22;2530;47.990;7.866;2022-09-09T07:09:10;18.20;99.90
5023;DHT22;2530;47.990;7.866;2022-09-09T07:11:41;18.40;99.90
5023;DHT22;2530;47.990;7.866;2022-09-09T07:14:07;18.40;99.90
5023;DHT22;2530;47.990;7.866;2022-09-09T07:16:34;18.50;99.90
5023;DHT22;2530;47.990;7.866;2022-09-09T07:19:03;18.40;99.90
5023;DHT22;2530;47.990;7.866;2022-09-09T07:21:29;18.50;99.90
5023;DHT22;2530;47.990;7.866;2022-09-09T07:23:56;18.50;99.90
5023;DHT22;2530;47.990;7.866;2022-09-09T07:26:24;18.50;99.90
5023;DHT22;2530;47.990;7.866;2022-09-09T07:28:50;18.50;99.90
5023;DHT22;2530;47.990;7.866;2022-09-09T07:31:27;18.60;99.90
5023;DHT22;2530;47.990;7.866;2022-09-09T07:33:53;18.70;99.90
5023;DHT22;2530;47.990;7.866;2022-09-09T07:36:22;18.80;99.90
5023;DHT22;2530;47.990;7.866;2022-09-09T07:38:57;18.70;99.90
5023;DHT22;2530;47.990;7.866;2022-09-09T07:41:29;18.70;99.90
5023;DHT22;2530;47.990;7.866;2022-09-09T07:43:56;18.70;99.90
5023;DHT22;2530;47.990;7.866;2022-09-09T07:46:24;18.80;99.90
5023;DHT22;2530;47.990;7.866;2022-09-09T07:48:52;18.70;99.90
5023;DHT22;2530;47.990;7.866;2022-09-09T07:51:22;18.80;99.90
5023;DHT22;2530;47.990;7.866;2022-09-09T07:53:52;18.80;99.90
5023;DHT22;2530;47.990;7.866;2022-09-09T07:56:18;18.80;99.90
5023;DHT22;2530;47.990;7.866;2022-09-09T07:58:48;18.70;99.90
5023;DHT22;2530;47.990;7.866;2022-09-09T08:01:25;18.70;99.90
5023;DHT22;2530;47.990;7.866;2022-09-09T08:04:03;18.60;99.90
5023;DHT22;2530;47.990;7.866;2022-09-09T08:06:31;18.50;99.90
5023;DHT22;2530;47.990;7.866;2022-09-09T08:08:58;18.40;99.90
5023;DHT22;2530;47.990;7.866;2022-09-09T08:11:25;18.50;99.90
5023;DHT22;2530;47.990;7.866;2022-09-09T08:13:51;18.70;99.90
5023;DHT22;2530;47.990;7.866;2022-09-09T08:16:23;18.70;99.90
5023;DHT22;2530;47.990;7.866;2022-09-09T08:18:50;18.60;99.90
5023;DHT22;2530;47.990;7.866;2022-09-09T08:21:20;18.60;99.90
5023;DHT22;2530;47.990;7.866;2022-09-09T08:23:47;18.50;99.90
5023;DHT22;2530;47.990;7.866;2022-09-09T08:26:15;18.60;99.90
5023;DHT22;2530;47.990;7.866;2022-09-09T08:28:42;18.70;99.90
5023;DHT22;2530;47.990;7.866;2022-09-09T08:31:11;18.70;99.90
5023;DHT22;2530;47.990;7.866;2022-09-09T08:33:37;18.50;99.90
5023;DHT22;2530;47.990;7.866;2022-09-09T08:36:04;18.70;99.90
5023;DHT22;2530;47.990;7.866;2022-09-09T08:38:30;18.70;99.90
5023;DHT22;2530;47.990;7.866;2022-09-09T08:41:12;18.80;99.90
5023;DHT22;2530;47.990;7.866;2022-09-09T08:43:43;18.80;99.90
5023;DHT22;2530;47.990;7.866;2022-09-09T08:46:41;18.90;99.90
5023;DHT22;2530;47.990;7.866;2022-09-09T08:49:34;18.90;99.90
5023;DHT22;2530;47.990;7.866;2022-09-09T08:52:03;19.00;99.90
5023;DHT22;2530;47.990;7.866;2022-09-09T08:54:34;19.10;99.90
5023;DHT22;2530;47.990;7.866;2022-09-09T08:57:02;19.30;99.90
5023;DHT22;2530;47.990;7.866;2022-09-09T08:59:28;19.40;99.90
5023;DHT22;2530;47.990;7.866;2022-09-09T09:02:04;19.40;99.90
5023;DHT22;2530;47.990;7.866;2022-09-09T09:07:32;19.60;99.90
5023;DHT22;2530;47.990;7.866;2022-09-09T09:12:53;19.70;99.90
5023;DHT22;2530;47.990;7.866;2022-09-09T09:15:23;19.80;99.90
5023;DHT22;2530;47.990;7.866;2022-09-09T09:17:49;19.80;99.90
5023;DHT22;2530;47.990;7.866;2022-09-09T09:20:16;20.00;99.90
5023;DHT22;2530;47.990;7.866;2022-09-09T09:22:48;20.00;99.90
5023;DHT22;2530;47.990;7.866;2022-09-09T09:25:20;20.20;99.90
5023;DHT22;2530;47.990;7.866;2022-09-09T09:27:52;20.20;99.90
5023;DHT22;2530;47.990;7.866;2022-09-09T09:30:26;20.30;99.90
5023;DHT22;2530;47.990;7.866;2022-09-09T09:33:02;20.20;99.90
5023;DHT22;2530;47.990;7.866;2022-09-09T09:35:28;20.10;99.90
5023;DHT22;2530;47.990;7.866;2022-09-09T09:37:54;20.00;99.90
5023;DHT22;2530;47.990;7.866;2022-09-09T09:40:21;20.10;99.90
5023;DHT22;2530;47.990;7.866;2022-09-09T09:42:56;20.20;99.90
5023;DHT22;2530;47.990;7.866;2022-09-09T09:45:26;20.10;99.90
5023;DHT22;2530;47.990;7.866;2022-09-09T09:48:04;20.00;99.90
5023;DHT22;2530;47.990;7.866;2022-09-09T09:50:31;19.90;99.90
5023;DHT22;2530;47.990;7.866;2022-09-09T09:53:02;20.00;99.90
5023;DHT22;2530;47.990;7.866;2022-09-09T09:55:30;20.20;99.90
5023;DHT22;2530;47.990;7.866;2022-09-09T09:58:05;20.10;99.90
5023;DHT22;2530;47.990;7.866;2022-09-09T10:00:31;20.00;99.90
5023;DHT22;2530;47.990;7.866;2022-09-09T10:02:59;20.00;99.90
5023;DHT22;2530;47.990;7.866;2022-09-09T10:05:28;20.00;99.90
5023;DHT22;2530;47.990;7.866;2022-09-09T10:10:39;20.40;99.90
5023;DHT22;2530;47.990;7.866;2022-09-09T10:14:11;20.60;99.90
5023;DHT22;2530;47.990;7.866;2022-09-09T10:16:34;20.70;99.90
5023;DHT22;2530;47.990;7.866;2022-09-09T10:19:29;20.80;97.10
5023;DHT22;2530;47.990;7.866;2022-09-09T10:25:01;21.00;97.50
5023;DHT22;2530;47.990;7.866;2022-09-09T10:33:39;21.20;94.30
5023;DHT22;2530;47.990;7.866;2022-09-09T10:36:23;21.00;92.00
5023;DHT22;2530;47.990;7.866;2022-09-09T10:39:59;20.50;98.00
5023;DHT22;2530;47.990;7.866;2022-09-09T10:42:14;19.50;99.90
5023;DHT22;2530;47.990;7.866;2022-09-09T10:53:24;17.40;99.90
5023;DHT22;2530;47.990;7.866;2022-09-09T10:56:13;17.60;99.90
5023;DHT22;2530;47.990;7.866;2022-09-09T10:58:53;18.00;99.90
5023;DHT22;2530;47.990;7.866;2022-09-09T11:01:52;18.30;99.90
5023;DHT22;2530;47.990;7.866;2022-09-09T11:07:11;18.90;99.90
5023;DHT22;2530;47.990;7.866;2022-09-09T11:09:42;19.40;99.90
5023;DHT22;2530;47.990;7.866;2022-09-09T11:12:18;19.70;99.90
5023;DHT22;2530;47.990;7.866;2022-09-09T11:14:50;19.60;99.90
5023;DHT22;2530;47.990;7.866;2022-09-09T11:17:22;19.70;99.90
5023;DHT22;2530;47.990;7.866;2022-09-09T11:19:49;19.70;99.90
5023;DHT22;2530;47.990;7.866;2022-09-09T11:22:27;19.80;99.90
5023;DHT22;2530;47.990;7.866;2022-09-09T11:33:17;19.50;99.90
5023;DHT22;2530;47.990;7.866;2022-09-09T11:38:47;20.10;99.90
5023;DHT22;2530;47.990;7.866;2022-09-09T11:41:15;21.00;99.90
5023;DHT22;2530;47.990;7.866;2022-09-09T11:44:11;21.90;99.10
5023;DHT22;2530;47.990;7.866;2022-09-09T11:46:39;22.80;97.10
5023;DHT22;2530;47.990;7.866;2022-09-09T11:49:29;22.30;97.20
5023;DHT22;2530;47.990;7.866;2022-09-09T11:51:57;22.20;98.90
5023;DHT22;2530;47.990;7.866;2022-09-09T11:56:54;23.30;94.00
5023;DHT22;2530;47.990;7.866;2022-09-09T11:59:22;23.40;93.60
5023;DHT22;2530;47.990;7.866;2022-09-09T12:02:09;22.50;96.20
5023;DHT22;2530;47.990;7.866;2022-09-09T12:04:39;22.20;96.70
5023;DHT22;2530;47.990;7.866;2022-09-09T12:14:44;22.80;87.50
5023;DHT22;2530;47.990;7.866;2022-09-09T12:17:20;22.20;84.60
5023;DHT22;2530;47.990;7.866;2022-09-09T12:19:48;21.80;86.40
5023;DHT22;2530;47.990;7.866;2022-09-09T12:22:32;21.80;87.00
5023;DHT22;2530;47.990;7.866;2022-09-09T12:28:11;21.40;90.00
5023;DHT22;2530;47.990;7.866;2022-09-09T12:31:09;21.40;90.70
5023;DHT22;2530;47.990;7.866;2022-09-09T12:33:40;22.10;89.30
5023;DHT22;2530;47.990;7.866;2022-09-09T12:36:12;22.30;89.00
5023;DHT22;2530;47.990;7.866;2022-09-09T12:38:41;21.80;91.00
5023;DHT22;2530;47.990;7.866;2022-09-09T12:41:25;21.70;92.90
5023;DHT22;2530;47.990;7.866;2022-09-09T12:43:51;22.00;91.70
5023;DHT22;2530;47.990;7.866;2022-09-09T12:46:41;21.80;91.80
5023;DHT22;2530;47.990;7.866;2022-09-09T12:49:30;21.50;92.90
5023;DHT22;2530;47.990;7.866;2022-09-09T12:52:19;21.30;94.10
5023;DHT22;2530;47.990;7.866;2022-09-09T12:54:47;21.20;94.90
5023;DHT22;2530;47.990;7.866;2022-09-09T12:57:13;20.90;96.40
5023;DHT22;2530;47.990;7.866;2022-09-09T12:59:42;20.80;96.90
5023;DHT22;2530;47.990;7.866;2022-09-09T13:02:25;20.80;96.60
5023;DHT22;2530;47.990;7.866;2022-09-09T13:04:51;20.90;97.10
5023;DHT22;2530;47.990;7.866;2022-09-09T13:07:18;20.90;97.00
5023;DHT22;2530;47.990;7.866;2022-09-09T13:09:45;20.60;97.00
5023;DHT22;2530;47.990;7.866;2022-09-09T13:12:21;20.50;97.50
5023;DHT22;2530;47.990;7.866;2022-09-09T13:14:51;20.40;99.90
5023;DHT22;2530;47.990;7.866;2022-09-09T13:17:22;20.30;99.80
5023;DHT22;2530;47.990;7.866;2022-09-09T13:19:49;20.30;99.00
5023;DHT22;2530;47.990;7.866;2022-09-09T13:22:30;20.30;99.90
5023;DHT22;2530;47.990;7.866;2022-09-09T13:27:39;20.10;96.70
5023;DHT22;2530;47.990;7.866;2022-09-09T13:30:27;19.90;95.10
5023;DHT22;2530;47.990;7.866;2022-09-09T13:35:49;19.10;99.20
5023;DHT22;2530;47.990;7.866;2022-09-09T13:38:16;19.10;99.90
5023;DHT22;2530;47.990;7.866;2022-09-09T13:41:02;18.60;99.90
5023;DHT22;2530;47.990;7.866;2022-09-09T13:43:31;18.40;99.90
5023;DHT22;2530;47.990;7.866;2022-09-09T13:46:04;18.30;99.90
5023;DHT22;2530;47.990;7.866;2022-09-09T13:48:29;18.70;99.90
5023;DHT22;2530;47.990;7.866;2022-09-09T13:50:58;19.20;99.90
5023;DHT22;2530;47.990;7.866;2022-09-09T13:53:25;20.20;99.90
5023;DHT22;2530;47.990;7.866;2022-09-09T13:55:50;20.70;99.90
5023;DHT22;2530;47.990;7.866;2022-09-09T13:58:17;20.80;99.90
5023;DHT22;2530;47.990;7.866;2022-09-09T14:00:47;21.10;98.80
5023;DHT22;2530;47.990;7.866;2022-09-09T14:03:13;21.60;99.90
5023;DHT22;2530;47.990;7.866;2022-09-09T14:05:39;21.60;97.80
5023;DHT22;2530;47.990;7.866;2022-09-09T14:08:06;21.50;97.80
5023;DHT22;2530;47.990;7.866;2022-09-09T14:10:31;21.40;99.20
5023;DHT22;2530;47.990;7.866;2022-09-09T14:12:57;21.20;96.10
5023;DHT22;2530;47.990;7.866;2022-09-09T14:15:23;21.50;96.70
5023;DHT22;2530;47.990;7.866;2022-09-09T14:17:48;21.40;96.80
5023;DHT22;2530;47.990;7.866;2022-09-09T14:20:14;21.10;96.20
5023;DHT22;2530;47.990;7.866;2022-09-09T14:22:42;20.80;97.50
5023;DHT22;2530;47.990;7.866;2022-09-09T14:25:09;20.60;99.10
5023;DHT22;2530;47.990;7.866;2022-09-09T14:27:34;20.90;99.60
5023;DHT22;2530;47.990;7.866;2022-09-09T14:30:00;21.50;98.60
5023;DHT22;2530;47.990;7.866;2022-09-09T14:32:26;21.40;97.80
5023;DHT22;2530;47.990;7.866;2022-09-09T14:34:52;21.00;98.40
5023;DHT22;2530;47.990;7.866;2022-09-09T14:37:18;20.70;99.90
5023;DHT22;2530;47.990;7.866;2022-09-09T14:39:44;21.10;99.90
5023;DHT22;2530;47.990;7.866;2022-09-09T14:42:12;21.20;98.20
5023;DHT22;2530;47.990;7.866;2022-09-09T14:44:38;21.30;99.50
5023;DHT22;2530;47.990;7.866;2022-09-09T14:47:05;21.70;97.10
5023;DHT22;2530;47.990;7.866;2022-09-09T14:49:30;21.90;97.10
5023;DHT22;2530;47.990;7.866;2022-09-09T14:51:56;22.20;98.20
5023;DHT22;2530;47.990;7.866;2022-09-09T14:54:22;21.80;96.80
5023;DHT22;2530;47.990;7.866;2022-09-09T14:56:48;21.50;98.90
5023;DHT22;2530;47.990;7.866;2022-09-09T14:59:13;21.20;99.90
5023;DHT22;2530;47.990;7.866;2022-09-09T15:01:39;21.10;99.90
5023;DHT22;2530;47.990;7.866;2022-09-09T15:04:05;21.00;99.90
5023;DHT22;2530;47.990;7.866;2022-09-09T15:06:33;21.00;99.90
5023;DHT22;2530;47.990;7.866;2022-09-09T15:09:00;21.00;99.90
5023;DHT22;2530;47.990;7.866;2022-09-09T15:11:28;20.80;99.90
5023;DHT22;2530;47.990;7.866;2022-09-09T15:13:55;20.60;99.90
5023;DHT22;2530;47.990;7.866;2022-09-09T15:16:23;20.60;99.90
5023;DHT22;2530;47.990;7.866;2022-09-09T15:18:55;20.50;99.90
5023;DHT22;2530;47.990;7.866;2022-09-09T15:21:25;20.50;99.00
5023;DHT22;2530;47.990;7.866;2022-09-09T15:23:51;20.60;99.90
5023;DHT22;2530;47.990;7.866;2022-09-09T15:26:17;20.40;99.90
5023;DHT22;2530;47.990;7.866;2022-09-09T15:28:45;20.20;99.90
5023;DHT22;2530;47.990;7.866;2022-09-09T15:31:14;20.00;99.90
5023;DHT22;2530;47.990;7.866;2022-09-09T15:33:47;19.90;99.90
5023;DHT22;2530;47.990;7.866;2022-09-09T15:36:24;19.90;99.90
5023;DHT22;2530;47.990;7.866;2022-09-09T15:38:51;19.80;99.90
5023;DHT22;2530;47.990;7.866;2022-09-09T15:41:17;19.80;99.90
5023;DHT22;2530;47.990;7.866;2022-09-09T15:43:48;19.80;99.90
5023;DHT22;2530;47.990;7.866;2022-09-09T15:46:25;20.00;99.90
5023;DHT22;2530;47.990;7.866;2022-09-09T15:48:53;20.00;99.90
5023;DHT22;2530;47.990;7.866;2022-09-09T15:51:19;19.90;99.90
5023;DHT22;2530;47.990;7.866;2022-09-09T15:53:45;20.00;99.90
5023;DHT22;2530;47.990;7.866;2022-09-09T15:56:11;19.90;99.90
5023;DHT22;2530;47.990;7.866;2022-09-09T15:58:37;19.90;99.90
5023;DHT22;2530;47.990;7.866;2022-09-09T16:01:07;19.80;99.90
5023;DHT22;2530;47.990;7.866;2022-09-09T16:03:37;19.80;99.90
5023;DHT22;2530;47.990;7.866;2022-09-09T16:06:03;19.80;99.90
5023;DHT22;2530;47.990;7.866;2022-09-09T16:08:38;19.80;99.90
5023;DHT22;2530;47.990;7.866;2022-09-09T16:11:15;19.80;99.90
5023;DHT22;2530;47.990;7.866;2022-09-09T16:13:44;19.70;99.90
5023;DHT22;2530;47.990;7.866;2022-09-09T16:16:14;19.70;99.90
5023;DHT22;2530;47.990;7.866;2022-09-09T16:18:43;19.50;99.90
5023;DHT22;2530;47.990;7.866;2022-09-09T16:21:19;19.40;99.90
5023;DHT22;2530;47.990;7.866;2022-09-09T16:23:45;18.90;99.90
5023;DHT22;2530;47.990;7.866;2022-09-09T16:26:12;18.00;99.90
5023;DHT22;2530;47.990;7.866;2022-09-09T16:28:38;17.10;99.90
5023;DHT22;2530;47.990;7.866;2022-09-09T16:31:06;16.80;99.90
5023;DHT22;2530;47.990;7.866;2022-09-09T16:33:32;16.70;99.90
5023;DHT22;2530;47.990;7.866;2022-09-09T16:35:57;16.70;99.90
5023;DHT22;2530;47.990;7.866;2022-09-09T16:38:23;16.70;99.90
5023;DHT22;2530;47.990;7.866;2022-09-09T16:40:49;16.80;99.90
5023;DHT22;2530;47.990;7.866;2022-09-09T16:43:15;16.90;99.90
5023;DHT22;2530;47.990;7.866;2022-09-09T16:45:45;17.00;99.90
5023;DHT22;2530;47.990;7.866;2022-09-09T16:48:11;16.90;99.90
5023;DHT22;2530;47.990;7.866;2022-09-09T16:50:37;16.80;99.90
5023;DHT22;2530;47.990;7.866;2022-09-09T16:53:04;16.80;99.90
5023;DHT22;2530;47.990;7.866;2022-09-09T16:55:38;16.70;99.90
5023;DHT22;2530;47.990;7.866;2022-09-09T16:58:04;16.70;99.90
5023;DHT22;2530;47.990;7.866;2022-09-09T17:00:29;16.70;99.90
5023;DHT22;2530;47.990;7.866;2022-09-09T17:02:55;16.70;99.90
5023;DHT22;2530;47.990;7.866;2022-09-09T17:05:20;16.80;99.90
5023;DHT22;2530;47.990;7.866;2022-09-09T17:07:46;16.70;99.90
5023;DHT22;2530;47.990;7.866;2022-09-09T17:10:12;16.70;99.90
5023;DHT22;2530;47.990;7.866;2022-09-09T17:12:37;16.80;99.90
5023;DHT22;2530;47.990;7.866;2022-09-09T17:15:03;16.80;99.90
5023;DHT22;2530;47.990;7.866;2022-09-09T17:17:29;16.70;99.90
5023;DHT22;2530;47.990;7.866;2022-09-09T17:19:55;16.70;99.90
5023;DHT22;2530;47.990;7.866;2022-09-09T17:22:20;16.70;99.90
5023;DHT22;2530;47.990;7.866;2022-09-09T17:24:46;16.50;99.90
5023;DHT22;2530;47.990;7.866;2022-09-09T17:27:12;16.60;99.90
5023;DHT22;2530;47.990;7.866;2022-09-09T17:29:38;16.60;99.90
5023;DHT22;2530;47.990;7.866;2022-09-09T17:32:05;16.50;99.90
5023;DHT22;2530;47.990;7.866;2022-09-09T17:34:31;16.40;99.90
5023;DHT22;2530;47.990;7.866;2022-09-09T17:36:56;16.40;99.90
5023;DHT22;2530;47.990;7.866;2022-09-09T17:39:22;16.30;99.90
5023;DHT22;2530;47.990;7.866;2022-09-09T17:41:48;16.30;99.90
5023;DHT22;2530;47.990;7.866;2022-09-09T17:44:14;16.20;99.90
5023;DHT22;2530;47.990;7.866;2022-09-09T17:46:42;16.10;99.90
5023;DHT22;2530;47.990;7.866;2022-09-09T17:49:10;16.20;99.90
5023;DHT22;2530;47.990;7.866;2022-09-09T17:51:37;16.20;99.90
5023;DHT22;2530;47.990;7.866;2022-09-09T17:54:09;16.10;99.90